Advance, North Carolina
Current Conditions -  °F | °C
As of 8:55 PM on Friday 31 Oct 2014 (Local Time) from KEXX Reporting Station
Overcast Overcast  
Wind Chill: 53°   Ceiling: 4000
Heat Index: 53°   Visibility: 10mi
Dew Point: 45°   Wind: 3mph
Humidity: 75%   Direction: 350°N
Pressure: 29.79"   Gusts: NA
Location:  35.95°N, 80.41°W
Report Text: KEXX 010055Z AUTO 35003KT 10SM BKN040 BKN048 OVC060 11/07 A2979 RMK AO2 T01140071
Loading
Personal Weather Stations






























Interactive Weather Map
Tropical Storm Tracking
New forecast layout! Learn more

10-Day Weather Forecast

Advertisements
Track Severe Weather on mobile